createdAt,value
2022-11-13T00:05:07.611Z,5.47
2022-11-13T00:10:30.480Z,4.83
2022-11-13T00:15:58.896Z,5.93
2022-11-13T00:21:21.706Z,5.27
2022-11-13T00:26:43.420Z,5.40
2022-11-13T00:32:06.647Z,5.63
2022-11-13T00:37:28.468Z,5.37
2022-11-13T00:42:50.550Z,5.63
2022-11-13T00:48:13.656Z,5.77
2022-11-13T00:53:35.370Z,4.73
2022-11-13T00:58:57.210Z,4.97
2022-11-13T01:04:20.317Z,5.17
2022-11-13T01:09:42.321Z,5.43
2022-11-13T01:15:04.132Z,5.50
2022-11-13T01:20:27.906Z,9.57
2022-11-13T01:25:49.684Z,9.10
2022-11-13T01:31:13.391Z,6.00
2022-11-13T01:36:36.187Z,6.67
2022-11-13T01:41:58.077Z,6.13
2022-11-13T01:47:20.828Z,5.60
2022-11-13T01:52:44.325Z,6.20
2022-11-13T01:58:07.312Z,6.13
2022-11-13T02:03:28.844Z,6.07
2022-11-13T02:08:52.299Z,5.77
2022-11-13T02:14:14.886Z,6.00
2022-11-13T02:19:38.019Z,6.03
2022-11-13T02:25:01.727Z,6.83
2022-11-13T02:30:27.555Z,7.47
2022-11-13T02:35:49.341Z,6.20
2022-11-13T02:41:12.751Z,7.07
2022-11-13T02:46:35.032Z,6.47
2022-11-13T02:51:56.736Z,7.47
2022-11-13T02:57:20.167Z,6.87
2022-11-13T03:02:42.171Z,8.20
2022-11-13T03:08:04.091Z,7.20
2022-11-13T03:13:27.533Z,7.53
2022-11-13T03:18:50.173Z,6.80
2022-11-13T03:24:12.046Z,8.00
2022-11-13T03:29:35.179Z,7.53
2022-11-13T03:34:56.969Z,7.30
2022-11-13T03:40:19.075Z,6.70
2022-11-13T03:45:42.156Z,6.10
2022-11-13T03:51:03.743Z,5.83
2022-11-13T03:56:25.460Z,5.80
2022-11-13T04:01:48.752Z,4.73
2022-11-13T04:07:10.719Z,4.27
2022-11-13T04:12:32.426Z,3.40
2022-11-13T04:17:55.407Z,3.13
2022-11-13T04:23:17.984Z,3.00
2022-11-13T04:28:39.687Z,3.83
2022-11-13T04:34:02.898Z,2.97
2022-11-13T04:39:24.707Z,3.27
2022-11-13T04:44:46.485Z,3.30
2022-11-13T04:50:09.900Z,2.43
2022-11-13T04:55:31.523Z,2.60
2022-11-13T05:00:53.283Z,2.53
2022-11-13T05:06:16.540Z,2.30
2022-11-13T05:11:38.449Z,2.80
2022-11-13T05:16:59.855Z,2.30
2022-11-13T05:22:23.054Z,2.57
2022-11-13T05:27:44.988Z,2.83
2022-11-13T05:33:06.489Z,2.50
2022-11-13T05:38:30.765Z,2.60
2022-11-13T05:43:58.084Z,2.60
2022-11-13T05:49:21.222Z,3.63
2022-11-13T05:54:44.419Z,3.07
2022-11-13T06:00:06.840Z,2.80
2022-11-13T06:05:28.588Z,3.13
2022-11-13T06:10:52.006Z,3.07
2022-11-13T06:16:14.401Z,2.67
2022-11-13T06:21:40.457Z,2.40
2022-11-13T06:27:03.459Z,2.50
2022-11-13T06:32:25.433Z,2.87
2022-11-13T06:37:47.410Z,2.60
2022-11-13T06:43:10.644Z,3.50
2022-11-13T06:48:32.496Z,2.90
2022-11-13T06:53:54.248Z,3.20
2022-11-13T06:59:17.511Z,3.13
2022-11-13T07:04:39.442Z,2.83
2022-11-13T07:10:01.230Z,2.80
2022-11-13T07:15:24.655Z,3.73
2022-11-13T07:20:46.464Z,4.00
2022-11-13T07:26:09.020Z,4.53
2022-11-13T07:31:31.885Z,5.60
2022-11-13T07:36:53.838Z,5.63
2022-11-13T07:42:15.147Z,5.40
2022-11-13T07:47:38.628Z,5.97
2022-11-13T07:53:00.829Z,5.67
2022-11-13T07:58:22.692Z,5.30
2022-11-13T08:03:45.971Z,5.27
2022-11-13T08:09:07.619Z,4.97
2022-11-13T08:14:29.516Z,4.10
2022-11-13T08:19:53.063Z,5.30
2022-11-13T08:25:14.651Z,4.20
2022-11-13T08:30:36.320Z,3.77
2022-11-13T08:36:00.176Z,3.67
2022-11-13T08:41:21.714Z,3.60
2022-11-13T08:46:43.555Z,3.70
2022-11-13T08:52:06.566Z,3.80
2022-11-13T08:57:28.146Z,4.03
2022-11-13T09:02:54.675Z,3.63
2022-11-13T09:08:17.747Z,4.13
2022-11-13T09:13:44.048Z,3.80
2022-11-13T09:19:06.273Z,3.33
2022-11-13T09:24:30.884Z,2.60
2022-11-13T09:29:55.567Z,2.67
2022-11-13T09:35:33.719Z,2.47
2022-11-13T09:40:59.013Z,2.30
2022-11-13T09:46:22.756Z,2.50
2022-11-13T09:51:47.891Z,2.50
2022-11-13T09:57:20.452Z,2.83
2022-11-13T10:02:51.348Z,2.67
2022-11-13T10:08:16.547Z,2.50
2022-11-13T10:13:44.895Z,2.23
2022-11-13T10:19:12.056Z,2.53
2022-11-13T10:24:39.813Z,2.13
2022-11-13T10:30:04.798Z,2.70
2022-11-13T10:35:34.212Z,2.50
2022-11-13T10:41:05.961Z,2.30
2022-11-13T10:46:30.597Z,2.60
2022-11-13T10:51:56.659Z,2.50
2022-11-13T10:57:30.244Z,2.27
2022-11-13T11:02:53.499Z,2.67
2022-11-13T11:08:15.791Z,2.43
2022-11-13T11:13:37.290Z,2.37
2022-11-13T11:19:02.740Z,2.10
2022-11-13T11:24:26.682Z,2.43
2022-11-13T11:29:50.238Z,2.47
2022-11-13T11:35:15.911Z,2.60
2022-11-13T11:40:41.563Z,3.13
2022-11-13T11:46:03.404Z,2.60
2022-11-13T11:51:27.497Z,2.70
2022-11-13T11:56:50.403Z,2.57
2022-11-13T12:02:29.904Z,3.30
2022-11-13T12:07:58.644Z,3.00
2022-11-13T12:13:27.064Z,3.40
2022-11-13T12:18:53.032Z,4.80
2022-11-13T12:24:24.923Z,2.93
2022-11-13T12:29:52.787Z,3.97
2022-11-13T12:35:16.232Z,3.00
2022-11-13T12:40:44.450Z,3.30
2022-11-13T12:46:08.216Z,2.60
2022-11-13T12:51:39.433Z,2.70
2022-11-13T12:57:17.193Z,2.77
2022-11-13T13:02:41.670Z,3.00
2022-11-13T13:08:25.436Z,2.97
2022-11-13T13:13:53.019Z,2.93
2022-11-13T13:19:25.767Z,2.33
2022-11-13T13:24:47.692Z,3.07
2022-11-13T13:30:21.443Z,4.30
2022-11-13T13:35:47.410Z,3.00
2022-11-13T13:41:17.049Z,2.50
2022-11-13T13:46:40.128Z,3.00
2022-11-13T13:52:02.004Z,3.07
2022-11-13T13:57:24.094Z,2.60
2022-11-13T14:02:51.189Z,2.80
2022-11-13T14:08:17.913Z,2.63
2022-11-13T14:13:42.079Z,2.77
2022-11-13T14:19:06.455Z,3.07
2022-11-13T14:24:33.855Z,3.50
2022-11-13T14:29:56.844Z,3.57
2022-11-13T14:35:21.579Z,12.60
2022-11-13T14:40:47.420Z,8.07
2022-11-13T14:46:27.757Z,8.03
2022-11-13T14:51:59.759Z,3.73
2022-11-13T14:57:21.694Z,3.27
2022-11-13T15:02:43.299Z,5.80
2022-11-13T15:08:07.018Z,6.30
2022-11-13T15:13:29.427Z,5.53
2022-11-13T15:18:54.022Z,3.27
2022-11-13T15:24:17.818Z,3.07
2022-11-13T15:29:40.739Z,3.60
2022-11-13T15:35:03.008Z,3.70
2022-11-13T15:40:26.100Z,3.23
2022-11-13T15:45:48.719Z,4.33
2022-11-13T15:51:14.187Z,4.27
2022-11-13T15:56:37.450Z,4.00
2022-11-13T16:02:05.257Z,3.73
2022-11-13T16:07:31.287Z,4.20
2022-11-13T16:12:54.468Z,3.90
2022-11-13T16:18:25.095Z,3.70
2022-11-13T16:23:47.216Z,4.43
2022-11-13T16:29:15.505Z,4.37
2022-11-13T16:34:39.479Z,4.63
2022-11-13T16:40:01.216Z,3.70
2022-11-13T16:45:24.592Z,4.13
2022-11-13T16:50:46.355Z,4.90
2022-11-13T16:56:12.577Z,4.23
2022-11-13T17:01:35.830Z,4.13
2022-11-13T17:06:58.082Z,4.13
2022-11-13T17:12:22.838Z,4.10
2022-11-13T17:17:45.939Z,38.87
2022-11-13T17:23:07.467Z,7.00
2022-11-13T17:28:29.252Z,4.77
2022-11-13T17:33:54.630Z,3.47
2022-11-13T17:39:16.520Z,4.53
2022-11-13T17:44:38.399Z,5.30
2022-11-13T17:50:07.109Z,5.87
2022-11-13T17:55:28.943Z,4.40
2022-11-13T18:00:51.016Z,4.73
2022-11-13T18:06:18.479Z,5.07
2022-11-13T18:11:41.417Z,5.13
2022-11-13T18:17:03.168Z,4.90
2022-11-13T18:22:26.594Z,5.57
2022-11-13T18:27:48.384Z,5.67
2022-11-13T18:33:10.444Z,5.70
2022-11-13T18:38:33.487Z,11.27
2022-11-13T18:43:55.447Z,5.70
2022-11-13T18:49:17.446Z,5.47
2022-11-13T18:54:40.520Z,5.83
2022-11-13T19:00:02.435Z,6.13
2022-11-13T19:05:24.041Z,16.13
2022-11-13T19:10:47.027Z,6.40
2022-11-13T19:16:09.991Z,5.87
2022-11-13T19:21:32.752Z,5.07
2022-11-13T19:26:56.063Z,5.53
2022-11-13T19:32:17.590Z,5.53
2022-11-13T19:37:39.347Z,5.50
2022-11-13T19:43:02.505Z,5.37
2022-11-13T19:48:24.106Z,4.50
2022-11-13T19:53:47.038Z,5.83
2022-11-13T19:59:11.414Z,5.73
2022-11-13T20:04:33.335Z,6.30
2022-11-13T20:09:56.197Z,5.10
2022-11-13T20:15:19.308Z,7.03
2022-11-13T20:20:44.352Z,6.43
2022-11-13T20:26:07.138Z,6.50
2022-11-13T20:31:30.180Z,7.20
2022-11-13T20:36:51.792Z,7.60
2022-11-13T20:42:13.511Z,7.83
2022-11-13T20:47:36.462Z,8.40
2022-11-13T20:52:57.854Z,7.73
2022-11-13T20:58:19.575Z,8.30
2022-11-13T21:03:43.937Z,9.47
2022-11-13T21:09:05.778Z,9.23
2022-11-13T21:14:27.560Z,10.07
2022-11-13T21:19:55.000Z,11.97
2022-11-13T21:25:19.689Z,9.00
2022-11-13T21:30:41.422Z,9.33
2022-11-13T21:36:08.604Z,7.10
2022-11-13T21:41:30.395Z,9.40
2022-11-13T21:46:52.357Z,10.30
2022-11-13T21:52:15.347Z,11.07
2022-11-13T21:57:37.005Z,9.77
2022-11-13T22:02:58.519Z,10.53
2022-11-13T22:08:21.803Z,10.80
2022-11-13T22:13:43.973Z,10.30
2022-11-13T22:19:06.411Z,10.50
2022-11-13T22:24:29.710Z,10.33
2022-11-13T22:29:51.305Z,10.53
2022-11-13T22:35:12.766Z,12.63
2022-11-13T22:40:36.165Z,10.70
2022-11-13T22:46:01.785Z,11.80
2022-11-13T22:51:24.412Z,12.60
2022-11-13T22:56:47.414Z,15.43
2022-11-13T23:02:09.460Z,14.93
2022-11-13T23:07:31.223Z,16.67
2022-11-13T23:12:54.594Z,15.57
2022-11-13T23:18:16.327Z,14.20
2022-11-13T23:23:38.228Z,15.40
2022-11-13T23:29:01.579Z,15.27
2022-11-13T23:34:52.725Z,16.23
2022-11-13T23:40:05.550Z,16.00
2022-11-13T23:45:29.088Z,16.67
2022-11-13T23:50:50.685Z,15.77
2022-11-13T23:56:12.378Z,15.73
